createdAt,value
2018-06-21T00:00:43.149Z,24.62
2018-06-21T00:03:10.765Z,24.62
2018-06-21T00:05:43.479Z,24.59
2018-06-21T00:08:11.516Z,24.59
2018-06-21T00:10:39.180Z,24.54
2018-06-21T00:13:06.836Z,24.55
2018-06-21T00:15:34.500Z,24.56
2018-06-21T00:18:02.118Z,24.48
2018-06-21T00:20:29.801Z,24.42
2018-06-21T00:22:57.446Z,24.41
2018-06-21T00:25:24.988Z,24.42
2018-06-21T00:27:52.612Z,24.38
2018-06-21T00:30:20.160Z,24.32
2018-06-21T00:32:47.748Z,24.23
2018-06-21T00:35:15.811Z,24.11
2018-06-21T00:37:43.455Z,23.97
2018-06-21T00:40:11.056Z,23.84
2018-06-21T00:42:38.681Z,23.67
2018-06-21T00:45:07.899Z,23.59
2018-06-21T00:47:36.069Z,23.51
2018-06-21T00:50:03.693Z,23.41
2018-06-21T00:52:31.275Z,23.41
2018-06-21T00:54:58.902Z,23.40
2018-06-21T00:57:26.433Z,23.43
2018-06-21T00:59:53.968Z,23.39
2018-06-21T01:02:21.560Z,23.41
2018-06-21T01:04:49.087Z,23.43
2018-06-21T01:07:17.234Z,23.46
2018-06-21T01:09:44.826Z,23.45
2018-06-21T01:12:12.720Z,23.43
2018-06-21T01:14:40.582Z,23.38
2018-06-21T01:17:09.017Z,23.34
2018-06-21T01:19:37.323Z,23.28
2018-06-21T01:22:05.809Z,23.30
2018-06-21T01:24:34.172Z,23.22
2018-06-21T01:27:02.661Z,23.04
2018-06-21T01:29:31.025Z,23.03
2018-06-21T01:31:59.461Z,22.96
2018-06-21T01:34:27.886Z,22.90
2018-06-21T01:36:56.580Z,23.03
2018-06-21T01:39:24.874Z,23.01
2018-06-21T01:41:53.226Z,23.03
2018-06-21T01:44:21.645Z,23.13
2018-06-21T01:46:50.310Z,23.21
2018-06-21T01:49:18.620Z,23.04
2018-06-21T01:51:47.544Z,22.81
2018-06-21T01:54:15.864Z,22.87
2018-06-21T01:56:44.261Z,22.80
2018-06-21T01:59:12.612Z,22.75
2018-06-21T02:01:41.142Z,22.68
2018-06-21T02:04:09.539Z,22.76
2018-06-21T02:06:37.930Z,22.90
2018-06-21T02:09:08.174Z,23.00
2018-06-21T02:11:36.542Z,23.05
2018-06-21T02:14:05.183Z,23.02
2018-06-21T02:16:33.891Z,22.96
2018-06-21T02:19:02.279Z,22.96
2018-06-21T02:21:30.640Z,22.95
2018-06-21T02:23:59.000Z,22.98
2018-06-21T02:26:27.336Z,23.01
2018-06-21T02:28:55.651Z,23.09
2018-06-21T02:31:23.989Z,23.11
2018-06-21T02:33:52.315Z,22.91
2018-06-21T02:36:20.664Z,22.65
2018-06-21T02:38:49.275Z,22.53
2018-06-21T02:41:20.160Z,22.54
2018-06-21T02:43:49.142Z,22.50
2018-06-21T02:46:17.684Z,22.51
2018-06-21T02:48:46.105Z,22.39
2018-06-21T02:51:14.800Z,22.37
2018-06-21T02:53:43.110Z,22.35
2018-06-21T02:56:11.615Z,22.39
2018-06-21T02:58:39.933Z,22.32
2018-06-21T03:01:08.297Z,22.32
2018-06-21T03:03:36.612Z,22.30
2018-06-21T03:06:04.981Z,22.08
2018-06-21T03:08:33.341Z,22.14
2018-06-21T03:11:01.735Z,22.14
2018-06-21T03:13:30.208Z,22.15
2018-06-21T03:15:58.957Z,22.12
2018-06-21T03:18:27.699Z,22.19
2018-06-21T03:20:56.074Z,22.12
2018-06-21T03:23:24.419Z,21.93
2018-06-21T03:25:52.774Z,21.91
2018-06-21T03:28:21.233Z,21.94
2018-06-21T03:30:49.581Z,21.90
2018-06-21T03:33:18.054Z,21.84
2018-06-21T03:35:46.490Z,21.88
2018-06-21T03:38:14.861Z,22.05
2018-06-21T03:40:43.233Z,22.14
2018-06-21T03:43:11.681Z,22.19
2018-06-21T03:45:40.133Z,22.21
2018-06-21T03:48:08.533Z,22.27
2018-06-21T03:50:36.952Z,22.30
2018-06-21T03:53:05.577Z,22.18
2018-06-21T03:55:34.121Z,22.14
2018-06-21T03:58:02.621Z,21.95
2018-06-21T04:00:31.026Z,21.93
2018-06-21T04:02:59.468Z,21.80
2018-06-21T04:05:27.924Z,21.72
2018-06-21T04:07:56.345Z,21.67
2018-06-21T04:10:24.737Z,21.63
2018-06-21T04:12:53.158Z,21.53
2018-06-21T04:15:21.642Z,21.50
2018-06-21T04:17:50.094Z,21.53
2018-06-21T04:20:18.581Z,21.49
2018-06-21T04:22:46.965Z,21.42
2018-06-21T04:25:15.572Z,21.37
2018-06-21T04:27:43.920Z,21.38
2018-06-21T04:30:12.291Z,21.37
2018-06-21T04:32:41.082Z,21.38
2018-06-21T04:35:09.563Z,21.31
2018-06-21T04:37:38.510Z,21.39
2018-06-21T04:40:06.994Z,21.51
2018-06-21T04:42:35.574Z,21.54
2018-06-21T04:45:04.116Z,21.49
2018-06-21T04:47:32.542Z,21.50
2018-06-21T04:50:01.939Z,21.51
2018-06-21T04:52:30.569Z,21.55
2018-06-21T04:54:58.972Z,21.55
2018-06-21T04:57:27.454Z,21.65
2018-06-21T04:59:55.966Z,21.70
2018-06-21T05:02:24.298Z,21.80
2018-06-21T05:04:52.698Z,21.87
2018-06-21T05:07:21.216Z,21.84
2018-06-21T05:09:49.728Z,21.95
2018-06-21T05:12:21.446Z,22.04
2018-06-21T05:14:50.734Z,22.09
2018-06-21T05:17:19.296Z,22.11
2018-06-21T05:19:47.692Z,22.21
2018-06-21T05:22:16.182Z,22.20
2018-06-21T05:24:44.582Z,22.17
2018-06-21T05:27:18.124Z,22.24
2018-06-21T05:29:46.506Z,22.32
2018-06-21T05:32:14.926Z,22.39
2018-06-21T05:34:43.261Z,22.40
2018-06-21T05:37:11.766Z,22.49
2018-06-21T05:39:40.120Z,22.58
2018-06-21T05:42:08.650Z,22.64
2018-06-21T05:44:37.110Z,22.70
2018-06-21T05:47:05.570Z,22.70
2018-06-21T05:49:34.487Z,22.71
2018-06-21T05:52:02.950Z,22.76
2018-06-21T05:54:31.364Z,22.79
2018-06-21T05:56:59.681Z,22.85
2018-06-21T05:59:28.091Z,22.90
2018-06-21T06:01:56.525Z,22.93
2018-06-21T06:04:24.928Z,22.95
2018-06-21T06:06:53.419Z,23.00
2018-06-21T06:09:21.837Z,23.03
2018-06-21T06:11:50.272Z,23.08
2018-06-21T06:14:18.867Z,23.16
2018-06-21T06:16:48.461Z,23.27
2018-06-21T06:19:16.974Z,23.33
2018-06-21T06:21:45.465Z,23.40
2018-06-21T06:24:14.211Z,23.51
2018-06-21T06:26:42.772Z,23.54
2018-06-21T06:29:11.259Z,23.60
2018-06-21T06:31:40.035Z,23.66
2018-06-21T06:34:08.395Z,23.71
2018-06-21T06:36:36.760Z,23.72
2018-06-21T06:39:13.311Z,23.80
2018-06-21T06:41:41.797Z,23.85
2018-06-21T06:44:10.851Z,23.88
2018-06-21T06:46:39.271Z,23.92
2018-06-21T06:49:08.624Z,23.97
2018-06-21T06:51:37.022Z,24.02
2018-06-21T06:54:05.411Z,24.06
2018-06-21T06:56:33.835Z,24.09
2018-06-21T06:59:02.217Z,24.16
2018-06-21T07:01:31.037Z,24.20
2018-06-21T07:03:59.437Z,24.24
2018-06-21T07:06:27.880Z,24.37
2018-06-21T07:08:56.801Z,24.50
2018-06-21T07:11:25.832Z,24.63
2018-06-21T07:13:54.709Z,24.73
2018-06-21T07:16:23.444Z,24.88
2018-06-21T07:18:52.045Z,24.88
2018-06-21T07:21:20.625Z,24.87
2018-06-21T07:23:49.011Z,24.97
2018-06-21T07:26:17.505Z,25.08
2018-06-21T07:28:45.883Z,25.13
2018-06-21T07:31:14.361Z,25.09
2018-06-21T07:33:42.812Z,25.13
2018-06-21T07:36:11.305Z,25.17
2018-06-21T07:38:39.883Z,25.26
2018-06-21T07:41:08.417Z,25.36
2018-06-21T07:43:36.940Z,25.42
2018-06-21T07:46:05.499Z,25.48
2018-06-21T07:48:34.006Z,25.45
2018-06-21T07:51:02.419Z,25.49
2018-06-21T07:53:31.002Z,25.65
2018-06-21T07:55:59.413Z,25.69
2018-06-21T07:58:28.437Z,25.77
2018-06-21T08:00:56.813Z,25.89
2018-06-21T08:03:25.156Z,25.94
2018-06-21T08:05:53.553Z,26.07
2018-06-21T08:08:21.997Z,26.08
2018-06-21T08:10:50.553Z,26.05
2018-06-21T08:13:19.080Z,26.06
2018-06-21T08:15:47.565Z,26.09
2018-06-21T08:18:16.238Z,26.22
2018-06-21T08:20:44.648Z,26.33
2018-06-21T08:23:13.605Z,26.34
2018-06-21T08:25:42.108Z,26.41
2018-06-21T08:28:10.638Z,26.40
2018-06-21T08:30:39.074Z,26.29
2018-06-21T08:33:07.483Z,26.35
2018-06-21T08:35:36.135Z,26.44
2018-06-21T08:38:04.615Z,26.53
2018-06-21T08:40:32.966Z,26.69
2018-06-21T08:43:01.365Z,26.68
2018-06-21T08:45:29.759Z,26.65
2018-06-21T08:47:58.099Z,26.60
2018-06-21T08:50:26.601Z,26.75
2018-06-21T08:52:55.051Z,26.87
2018-06-21T08:55:23.577Z,27.00
2018-06-21T08:57:52.244Z,27.18
2018-06-21T09:00:20.537Z,27.19
2018-06-21T09:02:48.909Z,27.25
2018-06-21T09:05:17.294Z,27.50
2018-06-21T09:07:45.709Z,27.56
2018-06-21T09:10:14.042Z,27.52
2018-06-21T09:12:42.486Z,27.57
2018-06-21T09:15:11.527Z,27.48
2018-06-21T09:17:39.842Z,27.47
2018-06-21T09:20:08.371Z,27.42
2018-06-21T09:22:36.780Z,27.40
2018-06-21T09:25:05.173Z,27.40
2018-06-21T09:27:33.577Z,27.36
2018-06-21T09:30:01.973Z,27.47
2018-06-21T09:32:31.221Z,27.55
2018-06-21T09:34:59.558Z,27.60
2018-06-21T09:37:34.482Z,27.57
2018-06-21T09:40:08.481Z,27.52
2018-06-21T09:42:42.163Z,27.53
2018-06-21T09:45:10.629Z,27.48
2018-06-21T09:48:47.900Z,27.48
2018-06-21T09:51:16.317Z,27.47
2018-06-21T09:53:44.709Z,27.47
2018-06-21T09:56:13.077Z,27.52
2018-06-21T09:58:41.506Z,27.56
2018-06-21T10:01:09.983Z,27.62
2018-06-21T10:03:38.321Z,27.75
2018-06-21T10:06:06.996Z,27.86
2018-06-21T10:08:35.400Z,27.83
2018-06-21T10:11:03.863Z,27.78
2018-06-21T10:13:32.536Z,27.75
2018-06-21T10:16:01.042Z,27.58
2018-06-21T10:18:29.431Z,27.48
2018-06-21T10:20:57.889Z,27.36
2018-06-21T10:23:26.271Z,27.29
2018-06-21T10:25:54.773Z,27.24
2018-06-21T10:28:23.127Z,27.23
2018-06-21T10:30:51.573Z,27.20
2018-06-21T10:33:20.237Z,27.26
2018-06-21T10:35:49.415Z,27.33
2018-06-21T10:38:17.994Z,27.27
2018-06-21T10:40:46.393Z,27.17
2018-06-21T10:43:15.587Z,27.20
2018-06-21T10:45:44.289Z,27.30
2018-06-21T10:48:12.876Z,27.31
2018-06-21T10:50:41.562Z,27.30
2018-06-21T10:53:10.094Z,27.36
2018-06-21T10:55:38.473Z,27.46
2018-06-21T10:58:07.401Z,27.48
2018-06-21T11:00:36.361Z,27.43
2018-06-21T11:03:04.893Z,27.40
2018-06-21T11:05:33.763Z,27.43
2018-06-21T11:08:02.249Z,27.52
2018-06-21T11:10:30.667Z,27.60
2018-06-21T11:12:59.292Z,27.29
2018-06-21T11:15:27.791Z,26.33
2018-06-21T11:17:56.204Z,25.36
2018-06-21T11:20:24.609Z,24.78
2018-06-21T11:22:53.352Z,24.48
2018-06-21T11:25:26.856Z,24.14
2018-06-21T11:27:55.768Z,23.92
2018-06-21T11:30:25.738Z,23.60
2018-06-21T11:32:54.410Z,23.25
2018-06-21T11:35:27.947Z,23.07
2018-06-21T11:37:56.290Z,22.88
2018-06-21T11:40:26.718Z,22.71
2018-06-21T11:42:55.936Z,22.54
2018-06-21T11:45:35.630Z,22.35
2018-06-21T11:48:03.351Z,22.20
2018-06-21T11:50:31.140Z,22.11
2018-06-21T11:52:58.837Z,22.08
2018-06-21T11:55:26.701Z,22.07
2018-06-21T11:57:54.425Z,22.15
2018-06-21T12:00:22.820Z,22.10
2018-06-21T12:02:50.418Z,22.01
2018-06-21T12:05:18.317Z,21.83
2018-06-21T12:07:47.233Z,21.63
2018-06-21T12:10:17.347Z,21.34
2018-06-21T12:12:46.189Z,21.17
2018-06-21T12:15:14.624Z,21.04
2018-06-21T12:17:43.271Z,20.94
2018-06-21T12:20:11.737Z,20.89
2018-06-21T12:22:42.420Z,20.83
2018-06-21T12:25:12.905Z,20.84
2018-06-21T12:27:42.303Z,20.71
2018-06-21T12:30:13.687Z,20.43
2018-06-21T12:32:42.227Z,20.42
2018-06-21T12:35:10.593Z,20.47
2018-06-21T12:37:39.583Z,20.53
2018-06-21T12:40:09.745Z,20.58
2018-06-21T12:42:40.743Z,20.63
2018-06-21T12:45:09.629Z,20.51
2018-06-21T12:47:40.102Z,20.38
2018-06-21T12:50:09.654Z,20.28
2018-06-21T12:52:39.895Z,20.26
2018-06-21T12:55:09.962Z,20.14
2018-06-21T12:57:40.734Z,20.08
2018-06-21T13:00:10.083Z,19.86
2018-06-21T13:02:40.334Z,19.77
2018-06-21T13:05:10.145Z,19.68
2018-06-21T13:07:39.225Z,19.55
2018-06-21T13:10:19.041Z,19.35
2018-06-21T13:13:03.870Z,19.22
2018-06-21T13:15:39.547Z,19.04
2018-06-21T13:18:08.312Z,19.19
2018-06-21T13:20:37.606Z,19.17
2018-06-21T13:23:06.242Z,19.32
2018-06-21T13:25:34.693Z,19.46
2018-06-21T13:28:03.184Z,19.50
2018-06-21T13:30:31.641Z,19.49
2018-06-21T13:33:00.110Z,19.41
2018-06-21T13:35:28.813Z,19.45
2018-06-21T13:37:57.545Z,19.59
2018-06-21T13:40:27.780Z,19.85
2018-06-21T13:42:56.242Z,20.15
2018-06-21T13:45:24.682Z,20.24
2018-06-21T13:47:53.153Z,20.30
2018-06-21T13:50:21.964Z,20.03
2018-06-21T13:52:50.350Z,19.74
2018-06-21T13:55:19.318Z,19.61
2018-06-21T13:57:49.248Z,19.64
2018-06-21T14:00:19.208Z,19.78
2018-06-21T14:02:48.116Z,19.94
2018-06-21T14:05:17.619Z,20.10
2018-06-21T14:07:47.049Z,20.30
2018-06-21T14:10:15.509Z,20.24
2018-06-21T14:12:49.455Z,20.07
2018-06-21T14:15:24.070Z,20.05
2018-06-21T14:17:55.189Z,20.09
2018-06-21T14:20:23.783Z,20.16
2018-06-21T14:22:54.794Z,20.16
2018-06-21T14:25:33.812Z,20.33
2018-06-21T14:28:02.628Z,20.66
2018-06-21T14:30:44.434Z,20.89
2018-06-21T14:33:13.168Z,21.00
2018-06-21T14:35:48.498Z,21.17
2018-06-21T14:38:21.757Z,21.48
2018-06-21T14:40:55.000Z,21.70
2018-06-21T14:43:23.453Z,21.80
2018-06-21T14:45:55.359Z,21.90
2018-06-21T14:48:23.956Z,22.15
2018-06-21T14:50:54.881Z,22.24
2018-06-21T14:53:25.283Z,21.96
2018-06-21T14:56:03.234Z,21.74
2018-06-21T14:58:36.569Z,21.53
2018-06-21T15:01:06.095Z,21.47
2018-06-21T15:03:39.949Z,21.42
2018-06-21T15:06:24.385Z,21.38
2018-06-21T15:08:56.841Z,21.30
2018-06-21T15:11:26.853Z,21.47
2018-06-21T15:13:55.455Z,21.79
2018-06-21T15:16:25.513Z,22.12
2018-06-21T15:18:56.628Z,22.34
2018-06-21T15:21:26.061Z,22.49
2018-06-21T15:23:56.517Z,22.44
2018-06-21T15:26:30.012Z,22.42
2018-06-21T15:29:00.920Z,22.34
2018-06-21T15:31:32.384Z,22.21
2018-06-21T15:34:01.197Z,22.07
2018-06-21T15:36:30.488Z,22.02
2018-06-21T15:39:04.568Z,21.99
2018-06-21T15:41:34.433Z,21.91
2018-06-21T15:44:05.270Z,21.82
2018-06-21T15:46:42.102Z,21.78
2018-06-21T15:49:14.025Z,21.69
2018-06-21T15:51:44.513Z,21.65
2018-06-21T15:54:16.514Z,21.62
2018-06-21T15:56:45.629Z,21.57
2018-06-21T15:59:14.401Z,21.57
2018-06-21T16:01:44.328Z,21.58
2018-06-21T16:04:17.283Z,21.58
2018-06-21T16:07:04.444Z,21.56
2018-06-21T16:09:36.502Z,21.43
2018-06-21T16:12:05.546Z,21.35
2018-06-21T16:14:34.130Z,21.28
2018-06-21T16:17:02.610Z,21.21
2018-06-21T16:19:31.170Z,21.13
2018-06-21T16:21:59.902Z,21.04
2018-06-21T16:24:28.467Z,21.06
2018-06-21T16:27:01.984Z,21.08
2018-06-21T16:29:30.543Z,21.04
2018-06-21T16:31:58.954Z,20.98
2018-06-21T16:34:27.564Z,20.95
2018-06-21T16:37:01.266Z,20.93
2018-06-21T16:39:29.817Z,20.94
2018-06-21T16:41:58.264Z,20.92
2018-06-21T16:44:27.044Z,20.81
2018-06-21T16:46:55.594Z,20.75
2018-06-21T16:49:24.466Z,20.73
2018-06-21T16:51:52.964Z,20.69
2018-06-21T16:54:21.442Z,20.69
2018-06-21T16:56:49.860Z,20.67
2018-06-21T16:59:18.620Z,20.59
2018-06-21T17:01:47.976Z,20.51
2018-06-21T17:04:16.490Z,20.55
2018-06-21T17:06:44.959Z,20.62
2018-06-21T17:09:13.452Z,20.70
2018-06-21T17:11:42.158Z,20.66
2018-06-21T17:14:10.887Z,20.60
2018-06-21T17:16:44.597Z,20.54
2018-06-21T17:19:13.109Z,20.50
2018-06-21T17:21:41.794Z,20.45
2018-06-21T17:24:10.214Z,20.42
2018-06-21T17:26:43.804Z,20.42
2018-06-21T17:29:12.313Z,20.38
2018-06-21T17:31:41.396Z,20.31
2018-06-21T17:34:10.213Z,20.21
2018-06-21T17:36:43.993Z,20.19
2018-06-21T17:39:12.793Z,20.20
2018-06-21T17:41:42.341Z,20.20
2018-06-21T17:44:12.312Z,20.10
2018-06-21T17:46:47.732Z,19.97
2018-06-21T17:49:17.908Z,20.02
2018-06-21T17:51:46.743Z,19.96
2018-06-21T17:54:15.418Z,19.90
2018-06-21T17:56:45.138Z,19.86
2018-06-21T17:59:15.708Z,19.84
2018-06-21T18:01:44.516Z,19.79
2018-06-21T18:04:13.514Z,19.85
2018-06-21T18:07:04.617Z,19.84
2018-06-21T18:09:33.367Z,19.69
2018-06-21T18:12:02.014Z,19.62
2018-06-21T18:14:32.383Z,19.58
2018-06-21T18:17:05.976Z,19.54
2018-06-21T18:19:34.454Z,19.51
2018-06-21T18:22:02.870Z,19.48
2018-06-21T18:24:31.326Z,19.40
2018-06-21T18:27:13.480Z,19.34
2018-06-21T18:29:42.078Z,19.28
2018-06-21T18:32:10.758Z,19.23
2018-06-21T18:34:39.364Z,19.14
2018-06-21T18:37:07.880Z,19.08
2018-06-21T18:39:36.494Z,19.09
2018-06-21T18:42:05.482Z,19.05
2018-06-21T18:44:34.033Z,19.03
2018-06-21T18:47:08.136Z,19.01
2018-06-21T18:49:36.769Z,18.99
2018-06-21T18:52:05.273Z,18.93
2018-06-21T18:54:33.804Z,18.91
2018-06-21T18:57:11.715Z,18.88
2018-06-21T18:59:40.234Z,18.84
2018-06-21T19:02:08.678Z,18.77
2018-06-21T19:04:37.386Z,18.72
2018-06-21T19:07:11.482Z,18.65
2018-06-21T19:09:45.578Z,18.66
2018-06-21T19:12:14.890Z,18.64
2018-06-21T19:14:43.472Z,18.71
2018-06-21T19:17:12.210Z,18.70
2018-06-21T19:19:40.749Z,18.67
2018-06-21T19:22:09.288Z,18.62
2018-06-21T19:24:37.739Z,18.52
2018-06-21T19:27:15.684Z,18.46
2018-06-21T19:29:44.118Z,18.34
2018-06-21T19:32:12.620Z,18.20
2018-06-21T19:34:41.144Z,18.21
2018-06-21T19:37:09.832Z,18.18
2018-06-21T19:39:38.870Z,18.11
2018-06-21T19:42:07.337Z,18.02
2018-06-21T19:44:35.774Z,17.91
2018-06-21T19:47:04.364Z,17.83
2018-06-21T19:49:32.865Z,17.81
2018-06-21T19:52:01.325Z,17.82
2018-06-21T19:54:29.776Z,17.82
2018-06-21T19:56:58.385Z,17.79
2018-06-21T19:59:26.844Z,17.68
2018-06-21T20:01:55.164Z,17.64
2018-06-21T20:04:23.718Z,17.55
2018-06-21T20:06:52.150Z,17.47
2018-06-21T20:09:20.641Z,17.38
2018-06-21T20:11:49.149Z,17.32
2018-06-21T20:14:17.621Z,17.21
2018-06-21T20:16:46.146Z,17.17
2018-06-21T20:19:16.784Z,17.11
2018-06-21T20:21:45.428Z,17.15
2018-06-21T20:24:13.984Z,17.11
2018-06-21T20:26:42.454Z,17.04
2018-06-21T20:29:16.373Z,17.12
2018-06-21T20:31:44.992Z,17.12
2018-06-21T20:34:13.592Z,17.02
2018-06-21T20:36:42.088Z,16.92
2018-06-21T20:39:11.450Z,16.99
2018-06-21T20:41:39.972Z,17.05
2018-06-21T20:44:08.505Z,17.05
2018-06-21T20:46:37.930Z,17.04
2018-06-21T20:49:06.321Z,16.96
2018-06-21T20:51:34.744Z,16.95
2018-06-21T20:54:03.082Z,16.92
2018-06-21T20:56:31.546Z,16.86
2018-06-21T20:58:59.834Z,16.86
2018-06-21T21:01:28.292Z,16.85
2018-06-21T21:03:56.669Z,16.85
2018-06-21T21:06:25.868Z,16.77
2018-06-21T21:08:54.236Z,16.71
2018-06-21T21:11:22.614Z,16.65
2018-06-21T21:13:51.042Z,16.62
2018-06-21T21:16:19.545Z,16.57
2018-06-21T21:18:47.971Z,16.54
2018-06-21T21:21:16.354Z,16.57
2018-06-21T21:23:44.710Z,16.55
2018-06-21T21:26:13.194Z,16.57
2018-06-21T21:28:41.589Z,16.58
2018-06-21T21:31:09.959Z,16.55
2018-06-21T21:33:38.386Z,16.52
2018-06-21T21:36:07.987Z,16.45
2018-06-21T21:38:36.336Z,16.43
2018-06-21T21:41:04.739Z,16.37
2018-06-21T21:43:33.186Z,16.33
2018-06-21T21:46:01.571Z,16.35
2018-06-21T21:48:29.926Z,16.31
2018-06-21T21:50:58.412Z,16.25
2018-06-21T21:53:26.784Z,16.22
2018-06-21T21:55:55.300Z,16.20
2018-06-21T21:58:23.682Z,16.22
2018-06-21T22:00:54.262Z,16.17
2018-06-21T22:03:22.580Z,16.20
2018-06-21T22:05:51.138Z,16.24
2018-06-21T22:08:19.577Z,16.27
2018-06-21T22:10:48.446Z,16.26
2018-06-21T22:13:17.131Z,16.25
2018-06-21T22:15:45.690Z,16.22
2018-06-21T22:18:14.034Z,16.19
2018-06-21T22:23:18.686Z,16.14
2018-06-21T22:25:47.265Z,16.09
2018-06-21T22:28:15.652Z,16.04
2018-06-21T22:30:44.033Z,16.03
2018-06-21T22:33:12.426Z,16.00
2018-06-21T22:35:41.032Z,15.97
2018-06-21T22:38:09.635Z,15.92
2018-06-21T22:40:38.123Z,15.92
2018-06-21T22:43:06.460Z,15.87
2018-06-21T22:45:34.933Z,15.83
2018-06-21T22:48:03.306Z,15.83
2018-06-21T22:50:31.711Z,15.76
2018-06-21T22:53:00.182Z,15.70
2018-06-21T22:55:28.566Z,15.68
2018-06-21T22:57:56.916Z,15.63
2018-06-21T23:00:25.298Z,15.66
2018-06-21T23:02:53.674Z,15.64
2018-06-21T23:05:22.117Z,15.60
2018-06-21T23:07:50.523Z,15.60
2018-06-21T23:10:18.918Z,15.56
2018-06-21T23:12:47.274Z,15.47
2018-06-21T23:15:15.814Z,15.43
2018-06-21T23:17:44.346Z,15.39
2018-06-21T23:20:12.930Z,15.35
2018-06-21T23:22:41.339Z,15.35
2018-06-21T23:25:09.779Z,15.28
2018-06-21T23:27:38.189Z,15.22
2018-06-21T23:30:06.712Z,15.24
2018-06-21T23:32:35.060Z,15.26
2018-06-21T23:35:03.558Z,15.23
2018-06-21T23:37:31.968Z,15.23
2018-06-21T23:40:00.386Z,15.25
2018-06-21T23:42:28.792Z,15.24
2018-06-21T23:44:57.189Z,15.26
2018-06-21T23:47:26.113Z,15.28
2018-06-21T23:49:54.525Z,15.26
2018-06-21T23:52:22.836Z,15.19
2018-06-21T23:54:51.273Z,15.24
2018-06-21T23:57:19.614Z,15.21
2018-06-21T23:59:48.052Z,15.16
